Running Springs, CA

7:51 AM PST on January 31, 2015 (GMT -0800)
APRSWXNET Running Springs CA US | Change Station
CLOSE
Current Station
Personal Weather Station
Location: Running Springs, CA
Elevation: 6230 ft
Nearby Weather Stations

Elev 6230 ft 34.22 °N, 117.12 °W | Updated 50 minutes ago

Overcast
Overcast
35.0 °F
Feels Like 35.0 °F
N
0.0
Wind Variable Wind from North
Gusts 0.0 mph

Today
High -- | Low -- °F
--% Chance of Precip.
Yesterday
High -- | Low -- °F
Precip. -- in
6:46 AM 5:17 PM
Waxing Gibbous, 90% visible
Pressure 29.94 in
Visibility 2.5 miles
Clouds Overcast 600 ft
Dew Point 35.0 °F
Humidity 100%
Rainfall 0.08 in
Snow Depth Not available.
UV 0 out of 12
Pollen 6.90 out of 12
Air Quality Not available.
Flu Activity Not available.
METAR KL35 311535Z AUTO 01004G15KT 2 1/2SM UP OVC006 00/00 A2994 RMK AO2 P0002

More Conditions Fewer Conditions

Pressure 29.94 in
Visibility 2.5 miles
Clouds Overcast 600 ft
Dew Point 35.0 °F
Humidity 100%
Rainfall 0.08 in
Snow Depth Not available.
UV 0 out of 12
Pollen 6.90 out of 12
Air Quality Not available.
Flu Activity Not available.
METAR KL35 311535Z AUTO 01004G15KT 2 1/2SM UP OVC006 00/00 A2994 RMK AO2 P0002

More Conditions Fewer Conditions

10-Day Weather Forecast

Almanac

Astronomy

Jan. 31, 2015 Rise Set
Actual Time
Civil Twilight
Nautical Twilight
Astronomical Twilight
Moon
Length of Visible Light
Length of Day
Tomorrow will be .
, % of the Moon is Illuminated

Today's Extremes

State Highs State Lows

Community

WunderPhotos

Upload Photos

1,792,094 photos uploaded!

WunderBlogs® & News

Nearby

Air Quality

  Air Quality AQ Index Pollutant
Not available.

Snow Depth

Station Depth Elevation

Earthquake Activity

City Distance Mag. Time & Date
Minimum magnitude displayed is 2.5.

Coastal Water Temperatures

Place Temperature

Nearby Weather Stations